Time;durP1;ratioP1;P1;durP2;ratioP2;P2;SDS_P1;SDS_P2;PMS_P1;PMS_P2;Temp;Humidity;BMP_temperature;BMP_pressure;BME280_temperature;BME280_humidity;BME280_pressure;Samples;Min_cycle;Max_cycle;Signal;HPM_P1;HPM_P2
2024/04/20 00:00:38;;;;;;;6.80;4.40;;;;;;;3.36;75.62;99099.52;107339;1254;61164;-38
2024/04/20 00:03:06;;;;;;;7.20;4.00;;;;;;;3.39;75.43;99098.86;107460;1254;74699;-38
2024/04/20 00:05:35;;;;;;;7.20;3.90;;;;;;;3.48;75.13;99102.88;107320;1254;67644;-38
2024/04/20 00:08:03;;;;;;;6.40;3.70;;;;;;;3.49;75.18;99102.30;107406;1255;71479;-38
2024/04/20 00:10:30;;;;;;;5.60;3.70;;;;;;;3.48;75.06;99105.48;107289;1254;61126;-38
2024/04/20 00:12:58;;;;;;;7.60;4.30;;;;;;;3.45;74.81;99109.22;107430;1252;61319;-38
2024/04/20 00:15:25;;;;;;;7.30;4.30;;;;;;;3.41;74.47;99114.30;107451;1254;74704;-38
2024/04/20 00:17:52;;;;;;;8.40;5.00;;;;;;;3.36;74.64;99115.09;107436;1254;67905;-38
2024/04/20 00:20:20;;;;;;;8.60;5.30;;;;;;;3.29;74.47;99116.84;107408;1254;72777;-38
2024/04/20 00:22:47;;;;;;;7.10;4.70;;;;;;;3.21;74.41;99119.33;107448;1254;61148;-38
2024/04/20 00:25:15;;;;;;;7.00;4.20;;;;;;;3.23;74.73;99119.23;107418;1254;61100;-38
2024/04/20 00:27:42;;;;;;;7.30;4.60;;;;;;;3.28;74.81;99123.55;107487;1254;74627;-38
2024/04/20 00:30:11;;;;;;;9.10;5.30;;;;;;;3.28;74.97;99122.42;107464;1254;67586;-38
2024/04/20 00:32:39;;;;;;;6.60;4.80;;;;;;;3.28;75.17;99126.98;107496;1254;71404;-38
2024/04/20 00:35:06;;;;;;;6.20;5.30;;;;;;;3.28;75.24;99125.13;107412;1254;61142;-39
2024/04/20 00:37:34;;;;;;;9.20;5.70;;;;;;;3.28;75.43;99120.63;107515;1254;61091;-39
2024/04/20 00:40:01;;;;;;;9.10;5.00;;;;;;;3.28;75.51;99115.05;107483;1254;74619;-39
2024/04/20 00:42:29;;;;;;;11.70;5.40;;;;;;;3.27;75.48;99117.38;107510;1255;67600;-39
2024/04/20 00:44:56;;;;;;;7.40;5.00;;;;;;;3.31;75.28;99119.01;107488;1254;71567;-39
2024/04/20 00:47:24;;;;;;;8.50;5.00;;;;;;;3.38;75.00;99120.33;107526;1254;61089;-39
2024/04/20 00:49:51;;;;;;;8.10;4.70;;;;;;;3.39;74.80;99120.88;107472;1253;60410;-39
2024/04/20 00:52:19;;;;;;;7.80;4.80;;;;;;;3.36;74.83;99123.67;107497;1254;73883;-39
2024/04/20 00:54:46;;;;;;;8.50;4.80;;;;;;;3.34;74.72;99125.34;107477;1254;66279;-39
2024/04/20 00:57:13;;;;;;;8.80;4.70;;;;;;;3.30;74.55;99130.58;107436;1255;71470;-37
2024/04/20 00:59:41;;;;;;;8.50;4.80;;;;;;;3.23;74.77;99134.96;107526;1257;61199;-37
2024/04/20 01:02:09;;;;;;;10.70;4.70;;;;;;;3.19;74.86;99139.00;107463;1253;61295;-37
2024/04/20 01:04:37;;;;;;;9.20;5.40;;;;;;;3.13;74.83;99138.40;107498;1254;74761;-37
2024/04/20 01:07:04;;;;;;;6.40;4.60;;;;;;;3.16;74.72;99140.70;107457;1254;67517;-37
2024/04/20 01:09:31;;;;;;;8.10;4.50;;;;;;;3.24;74.79;99142.33;107362;1254;72681;-37
2024/04/20 01:11:59;;;;;;;8.20;4.70;;;;;;;3.24;74.66;99141.21;107387;1252;61103;-37
2024/04/20 01:14:26;;;;;;;7.20;4.90;;;;;;;3.24;74.83;99143.33;107389;1254;60173;-37
2024/04/20 01:16:54;;;;;;;6.80;5.00;;;;;;;3.23;74.91;99139.53;107467;1254;74601;-37
2024/04/20 01:19:22;;;;;;;7.30;4.60;;;;;;;3.22;74.88;99143.31;107516;1254;65292;-37
2024/04/20 01:21:50;;;;;;;6.20;4.50;;;;;;;3.19;74.70;99142.77;107592;1254;72679;-37
2024/04/20 01:24:18;;;;;;;6.60;4.50;;;;;;;3.16;74.59;99143.95;107502;1253;61221;-37
2024/04/20 01:26:46;;;;;;;7.10;4.70;;;;;;;3.09;74.13;99148.05;107321;1254;61244;-37
2024/04/20 01:29:14;;;;;;;7.60;4.50;;;;;;;3.02;74.24;99151.79;107538;1254;74336;-37
2024/04/20 01:31:41;;;;;;;7.30;4.30;;;;;;;3.01;73.88;99156.01;107472;1254;67221;-38
2024/04/20 01:34:09;;;;;;;6.70;4.30;;;;;;;3.08;73.96;99159.83;107486;1254;72738;-38
2024/04/20 01:36:36;;;;;;;8.00;4.80;;;;;;;3.07;73.88;99160.27;107449;1260;61285;-38
2024/04/20 01:39:03;;;;;;;5.70;3.80;;;;;;;3.05;73.97;99158.96;107495;1254;61112;-38
2024/04/20 01:41:31;;;;;;;5.30;4.30;;;;;;;3.04;73.95;99160.15;107491;1254;73359;-38
2024/04/20 01:43:58;;;;;;;6.70;4.40;;;;;;;3.02;74.03;99160.10;107492;1255;67641;-38
2024/04/20 01:46:26;;;;;;;6.90;4.60;;;;;;;2.99;74.19;99156.10;107438;1253;72757;-38
2024/04/20 01:48:53;;;;;;;5.80;4.60;;;;;;;2.96;73.90;99158.46;107461;1254;61144;-38
2024/04/20 01:51:20;;;;;;;7.70;4.50;;;;;;;2.90;73.94;99158.27;107431;1254;60512;-38
2024/04/20 01:53:48;;;;;;;5.80;4.40;;;;;;;2.84;73.86;99156.54;107433;1259;74658;-38
2024/04/20 01:56:15;;;;;;;7.00;4.10;;;;;;;2.86;73.60;99158.67;107491;1259;67663;-38
2024/04/20 01:58:43;;;;;;;6.70;4.50;;;;;;;2.93;73.60;99161.83;107486;1254;72652;-38
2024/04/20 02:01:10;;;;;;;6.80;4.00;;;;;;;2.90;73.68;99158.96;107446;1254;61311;-38
2024/04/20 02:03:38;;;;;;;6.60;4.20;;;;;;;2.88;73.92;99157.04;107446;1254;61273;-38
2024/04/20 02:06:06;;;;;;;6.60;4.70;;;;;;;2.87;74.35;99154.70;107476;1253;74662;-38
2024/04/20 02:08:33;;;;;;;9.20;4.60;;;;;;;2.85;74.51;99157.98;107479;1259;67619;-38
2024/04/20 02:11:00;;;;;;;5.80;4.30;;;;;;;2.84;74.60;99158.61;107441;1259;72719;-38
2024/04/20 02:13:28;;;;;;;8.10;5.40;;;;;;;2.82;74.51;99156.20;107502;1254;61285;-38
2024/04/20 02:15:55;;;;;;;6.80;5.00;;;;;;;2.76;74.49;99151.87;107474;1254;59988;-38
2024/04/20 02:18:23;;;;;;;6.90;5.10;;;;;;;2.79;74.26;99151.58;107432;1254;74632;-38
2024/04/20 02:20:50;;;;;;;5.50;4.40;;;;;;;2.86;74.32;99149.89;107436;1253;67931;-38
2024/04/20 02:23:18;;;;;;;6.10;4.40;;;;;;;2.87;74.62;99145.38;107446;1254;72702;-38
2024/04/20 02:25:45;;;;;;;8.60;4.80;;;;;;;2.87;74.70;99142.92;107485;1254;60994;-38
2024/04/20 02:28:12;;;;;;;5.90;4.20;;;;;;;2.87;74.51;99143.20;107440;1254;61112;-38
2024/04/20 02:30:40;;;;;;;6.50;4.70;;;;;;;2.85;74.58;99146.64;107409;1254;73434;-38
2024/04/20 02:33:07;;;;;;;8.80;4.90;;;;;;;2.81;74.33;99146.47;107456;1253;66397;-38
2024/04/20 02:35:39;;;;;;;6.80;4.60;;;;;;;2.78;73.93;99151.39;107444;1257;72691;-38
2024/04/20 02:38:07;;;;;;;6.70;4.30;;;;;;;2.73;74.00;99149.39;107426;1257;61257;-38
2024/04/20 02:40:34;;;;;;;5.40;4.10;;;;;;;2.68;73.87;99154.95;107439;1254;61289;-38
2024/04/20 02:43:01;;;;;;;7.20;4.30;;;;;;;2.69;73.55;99158.41;107401;1257;73366;-38
2024/04/20 02:45:29;;;;;;;7.60;4.50;;;;;;;2.72;73.30;99159.93;107464;1254;67609;-38
2024/04/20 02:47:57;;;;;;;5.40;4.10;;;;;;;2.66;73.77;99163.27;107450;1254;72803;-38
2024/04/20 02:50:24;;;;;;;5.30;4.50;;;;;;;2.63;74.15;99162.53;107436;1256;61438;-38
2024/04/20 02:52:51;;;;;;;6.20;4.90;;;;;;;2.62;74.46;99160.05;107466;1254;60433;-38
2024/04/20 02:55:19;;;;;;;7.50;4.70;;;;;;;2.61;74.45;99162.46;107446;1254;74621;-38
2024/04/20 02:57:46;;;;;;;8.40;5.20;;;;;;;2.59;74.45;99166.08;107451;1254;65294;-38
2024/04/20 03:00:14;;;;;;;10.10;5.10;;;;;;;2.55;74.19;99165.52;107419;1254;72701;-38
2024/04/20 03:02:42;;;;;;;5.90;4.20;;;;;;;2.56;74.06;99163.34;107437;1258;61156;-38
2024/04/20 03:05:10;;;;;;;6.40;4.10;;;;;;;2.61;74.12;99167.04;107426;1253;61230;-38
2024/04/20 03:07:37;;;;;;;7.00;5.00;;;;;;;2.63;74.44;99163.83;107319;1254;74673;-38
2024/04/20 03:10:05;;;;;;;6.90;5.30;;;;;;;2.62;74.60;99170.14;107374;1253;66927;-38
2024/04/20 03:12:32;;;;;;;7.30;4.80;;;;;;;2.61;74.84;99169.34;107489;1254;72682;-38
2024/04/20 03:15:00;;;;;;;7.50;5.20;;;;;;;2.60;74.94;99168.79;107475;1257;61260;-38
2024/04/20 03:17:27;;;;;;;6.10;4.80;;;;;;;2.57;74.98;99167.36;107478;1253;60406;-38
2024/04/20 03:19:55;;;;;;;6.90;4.80;;;;;;;2.52;74.86;99173.88;107459;1253;74629;-38
2024/04/20 03:22:23;;;;;;;7.20;4.70;;;;;;;2.54;74.71;99178.00;107466;1253;67642;-38
2024/04/20 03:24:50;;;;;;;6.10;4.30;;;;;;;2.60;74.57;99178.21;107547;1254;71358;-38
2024/04/20 03:27:18;;;;;;;11.40;5.00;;;;;;;2.60;74.61;99179.88;107487;1254;61320;-38
2024/04/20 03:29:46;;;;;;;6.60;4.70;;;;;;;2.56;75.00;99184.94;107495;1254;61119;-38
2024/04/20 03:32:13;;;;;;;6.00;4.50;;;;;;;2.56;75.25;99189.44;107464;1254;72834;-38
2024/04/20 03:34:41;;;;;;;7.80;5.40;;;;;;;2.58;75.30;99193.25;107450;1254;67715;-38
2024/04/20 03:37:08;;;;;;;7.00;5.30;;;;;;;2.59;75.79;99192.09;107425;1254;72690;-38
2024/04/20 03:39:36;;;;;;;12.60;5.40;;;;;;;2.60;75.70;99195.34;107464;1257;60843;-38
2024/04/20 03:42:04;;;;;;;7.00;5.00;;;;;;;2.65;75.67;99198.63;107446;1253;61336;-38
2024/04/20 03:44:32;;;;;;;10.00;5.60;;;;;;;2.70;75.94;99203.62;107443;1254;74675;-38
2024/04/20 03:47:01;;;;;;;7.70;5.40;;;;;;;2.73;76.36;99204.98;107457;1253;67890;-38
2024/04/20 03:49:28;;;;;;;8.20;5.50;;;;;;;2.77;76.54;99201.02;107369;1253;72665;-38
2024/04/20 03:51:56;;;;;;;9.90;5.60;;;;;;;2.77;76.66;99201.86;107335;1256;61414;-38
2024/04/20 03:54:23;;;;;;;7.90;5.70;;;;;;;2.80;76.93;99201.23;107447;1253;60920;-38
2024/04/20 03:56:51;;;;;;;6.80;5.00;;;;;;;2.91;76.90;99203.16;107431;1254;74699;-38
2024/04/20 03:59:18;;;;;;;6.90;5.20;;;;;;;3.06;76.80;99212.40;107481;1253;67554;-38
2024/04/20 04:01:45;;;;;;;7.40;5.20;;;;;;;3.15;76.82;99221.63;107422;1253;72653;-38
2024/04/20 04:04:13;;;;;;;7.60;4.60;;;;;;;3.20;76.83;99216.49;107423;1256;61263;-38
2024/04/20 04:06:40;;;;;;;6.90;4.90;;;;;;;3.25;76.94;99216.41;107405;1254;61266;-38
2024/04/20 04:09:08;;;;;;;7.90;5.20;;;;;;;3.30;77.26;99216.47;107458;1254;74769;-38
2024/04/20 04:11:35;;;;;;;7.80;5.50;;;;;;;3.35;77.25;99215.08;107420;1259;67621;-38
2024/04/20 04:14:03;;;;;;;6.80;5.10;;;;;;;3.39;77.18;99214.36;107446;1257;72687;-38
2024/04/20 04:16:30;;;;;;;6.70;5.10;;;;;;;3.51;77.07;99218.96;107404;1259;61116;-38
2024/04/20 04:18:57;;;;;;;7.10;4.90;;;;;;;3.63;76.99;99224.85;107382;1253;61256;-38
2024/04/20 04:21:26;;;;;;;7.80;4.50;;;;;;;3.69;77.12;99221.02;107423;1254;74655;-38
2024/04/20 04:23:54;;;;;;;9.40;5.10;;;;;;;3.74;77.35;99218.80;107440;1253;66447;-38
2024/04/20 04:26:22;;;;;;;6.60;5.20;;;;;;;3.81;77.37;99222.81;107411;1253;72772;-38
2024/04/20 04:28:50;;;;;;;8.80;4.90;;;;;;;3.86;76.97;99227.70;107424;1256;61222;-38
2024/04/20 04:31:17;;;;;;;9.40;6.50;;;;;;;3.89;76.87;99231.57;107390;1259;61225;-38
2024/04/20 04:33:45;;;;;;;5.20;4.60;;;;;;;3.92;76.73;99233.25;105890;1253;1002942;-38
2024/04/20 04:36:12;;;;;;;9.60;5.30;;;;;;;4.03;76.53;99239.59;107487;1254;66615;-38
2024/04/20 04:38:39;;;;;;;7.00;4.70;;;;;;;4.14;76.16;99240.67;107467;1256;71381;-38
2024/04/20 04:41:07;;;;;;;7.60;5.30;;;;;;;4.19;76.16;99241.05;107455;1254;61228;-38
2024/04/20 04:43:36;;;;;;;7.10;5.00;;;;;;;4.22;76.07;99244.38;106729;1254;1002989;-38
2024/04/20 04:46:04;;;;;;;9.30;7.40;;;;;;;4.26;76.15;99246.55;107485;1253;74672;-38
2024/04/20 04:48:31;;;;;;;6.10;4.90;;;;;;;4.30;76.32;99251.08;106728;1253;1002876;-38
2024/04/20 04:50:59;;;;;;;8.40;5.20;;;;;;;4.34;76.20;99252.62;107474;1254;72688;-38
2024/04/20 04:53:26;;;;;;;6.70;4.80;;;;;;;4.34;76.14;99256.23;107561;1255;61295;-38
2024/04/20 04:55:54;;;;;;;5.40;4.30;;;;;;;4.41;76.03;99260.48;107481;1254;61107;-38
2024/04/20 04:58:21;;;;;;;5.70;3.70;;;;;;;4.52;75.38;99264.34;107278;1254;74755;-38
2024/04/20 05:00:49;;;;;;;6.50;3.90;;;;;;;4.56;75.33;99267.30;107525;1254;67589;-38
2024/04/20 05:03:16;;;;;;;6.40;4.20;;;;;;;4.56;75.45;99269.48;107458;1257;72773;-38
2024/04/20 05:05:50;;;;;;;6.00;4.50;;;;;;;4.60;75.31;99274.56;107464;1253;61247;-38
2024/04/20 05:08:19;;;;;;;9.10;4.90;;;;;;;4.64;75.18;99275.72;107448;1254;61248;-38
2024/04/20 05:10:46;;;;;;;11.10;6.30;;;;;;;4.69;75.46;99277.69;107496;1254;74665;-38
2024/04/20 05:13:13;;;;;;;10.90;6.20;;;;;;;4.79;75.53;99280.46;107446;1253;67443;-38
2024/04/20 05:15:41;;;;;;;13.40;7.50;;;;;;;4.94;75.32;99285.05;107486;1257;72697;-38
2024/04/20 05:18:11;;;;;;;8.00;4.80;;;;;;;5.03;75.12;99282.66;107426;1257;61349;-38
2024/04/20 05:20:38;;;;;;;7.10;4.50;;;;;;;5.08;74.99;99284.39;107528;1253;61305;-38
2024/04/20 05:23:06;;;;;;;9.90;6.40;;;;;;;5.14;74.76;99289.46;107482;1254;73363;-38
2024/04/20 05:25:33;;;;;;;6.70;4.80;;;;;;;5.16;73.62;99292.70;107465;1253;66330;-38
2024/04/20 05:28:01;;;;;;;8.60;5.10;;;;;;;5.17;73.16;99288.18;107433;1253;72721;-38
2024/04/20 05:30:29;;;;;;;13.10;7.10;;;;;;;5.22;73.19;99290.14;107428;1256;61791;-38
2024/04/20 05:32:57;;;;;;;7.80;5.00;;;;;;;5.36;72.96;99292.98;107375;1254;61382;-38
2024/04/20 05:35:26;;;;;;;13.20;7.50;;;;;;;5.44;72.83;99293.60;107352;1253;74696;-38
2024/04/20 05:37:53;;;;;;;9.50;4.80;;;;;;;5.52;73.08;99296.59;107428;1253;66310;-38
2024/04/20 05:40:21;;;;;;;12.50;7.20;;;;;;;5.59;72.54;99294.19;105951;1254;1002844;-38
2024/04/20 05:42:48;;;;;;;13.20;7.00;;;;;;;5.70;72.66;99293.41;107472;1254;60103;-38
2024/04/20 05:45:16;;;;;;;5.60;4.00;;;;;;;5.80;72.32;99297.64;107394;1253;61294;-38
2024/04/20 05:47:45;;;;;;;6.00;3.80;;;;;;;5.89;71.43;99295.37;107426;1254;74760;-38
2024/04/20 05:50:12;;;;;;;5.90;3.20;;;;;;;5.97;71.15;99298.66;107435;1254;67757;-38
2024/04/20 05:52:40;;;;;;;6.30;3.90;;;;;;;6.12;70.69;99297.52;107485;1257;72679;-38
2024/04/20 05:55:08;;;;;;;4.80;3.50;;;;;;;6.30;70.41;99300.15;107457;1254;60392;-38
2024/04/20 05:57:35;;;;;;;4.60;3.50;;;;;;;6.43;69.35;99301.98;107460;1254;61167;-38
2024/04/20 06:00:05;;;;;;;4.00;3.00;;;;;;;6.52;68.83;99305.69;107422;1253;74764;-38
2024/04/20 06:02:38;;;;;;;4.90;3.40;;;;;;;6.64;68.66;99309.75;106745;1253;1003591;-38
2024/04/20 06:05:05;;;;;;;4.60;3.50;;;;;;;6.75;68.60;99311.49;107456;1253;71854;-38
2024/04/20 06:07:33;;;;;;;5.00;3.30;;;;;;;6.86;68.81;99311.80;107455;1256;61298;-38
2024/04/20 06:10:00;;;;;;;4.30;3.10;;;;;;;6.98;68.08;99314.73;107508;1256;60430;-38
2024/04/20 06:12:28;;;;;;;4.50;3.00;;;;;;;7.09;67.43;99317.86;107489;1253;74661;-38
2024/04/20 06:14:55;;;;;;;4.40;3.10;;;;;;;7.17;67.26;99321.04;107601;1254;67621;-38
2024/04/20 06:17:23;;;;;;;4.90;3.20;;;;;;;7.26;67.41;99323.40;107357;1256;71410;-38
2024/04/20 06:19:50;;;;;;;4.50;3.40;;;;;;;7.43;67.41;99324.94;107363;1255;61042;-38
2024/04/20 06:22:18;;;;;;;10.20;3.90;;;;;;;7.63;67.28;99318.05;107429;1254;61090;-39
2024/04/20 06:24:47;;;;;;;4.10;3.20;;;;;;;7.76;66.32;99317.28;107422;1254;74662;-39
2024/04/20 06:27:14;;;;;;;2.90;2.40;;;;;;;7.87;65.22;99317.14;107487;1254;66616;-39
2024/04/20 06:29:42;;;;;;;4.30;3.10;;;;;;;7.99;63.89;99313.61;107468;1259;71846;-39
2024/04/20 06:32:09;;;;;;;4.60;3.00;;;;;;;8.10;63.98;99308.46;107426;1254;61325;-39
2024/04/20 06:34:37;;;;;;;4.00;3.00;;;;;;;8.24;64.48;99311.17;107503;1254;61244;-39
2024/04/20 06:37:06;;;;;;;4.90;3.00;;;;;;;8.38;62.99;99309.46;107436;1253;73674;-38
2024/04/20 06:39:33;;;;;;;5.50;2.90;;;;;;;8.49;62.18;99308.13;107478;1254;66304;-38
2024/04/20 06:42:01;;;;;;;4.20;2.40;;;;;;;8.58;61.70;99309.05;107430;1255;72720;-39
2024/04/20 06:44:28;;;;;;;3.30;2.60;;;;;;;8.68;61.81;99310.58;106709;1254;1003126;-39
2024/04/20 06:46:58;;;;;;;4.10;2.30;;;;;;;8.83;60.09;99310.63;107309;1254;179685;-39
2024/04/20 06:50:35;;;;;;;3.40;2.30;;;;;;;8.98;57.13;99312.55;104148;1295;600774;-38
2024/04/20 06:53:02;;;;;;;3.30;2.20;;;;;;;9.03;55.75;99306.33;106602;1270;60093;-38
2024/04/20 06:55:29;;;;;;;3.80;2.20;;;;;;;9.10;56.51;99307.20;106686;1267;60187;-38
2024/04/20 06:57:57;;;;;;;3.60;2.20;;;;;;;9.21;56.87;99304.75;106600;1267;73189;-38
2024/04/20 07:00:24;;;;;;;4.90;2.60;;;;;;;9.33;57.23;99313.59;106635;1267;67621;-38
2024/04/20 07:02:52;;;;;;;3.00;2.20;;;;;;;9.49;56.46;99319.45;106611;1267;71229;-38
2024/04/20 07:05:19;;;;;;;6.30;2.80;;;;;;;9.63;55.51;99321.30;106565;1269;188762;-38
2024/04/20 07:07:47;;;;;;;3.90;2.50;;;;;;;9.75;55.61;99322.80;106664;1269;59657;-38
2024/04/20 07:10:14;;;;;;;3.30;2.40;;;;;;;9.85;54.66;99330.77;106627;1264;73567;-38
2024/04/20 07:12:42;;;;;;;4.10;2.30;;;;;;;9.92;54.39;99329.04;106667;1264;67574;-38
2024/04/20 07:15:09;;;;;;;2.90;2.30;;;;;;;9.99;52.40;99331.98;106741;1264;73079;-38
2024/04/20 07:17:37;;;;;;;2.70;1.40;;;;;;;10.06;50.30;99336.52;106731;1264;60136;-38
2024/04/20 07:20:05;;;;;;;2.50;1.70;;;;;;;10.10;49.74;99335.05;106747;1264;60325;-38
2024/04/20 07:22:33;;;;;;;3.10;1.80;;;;;;;10.17;50.66;99330.88;106754;1268;73876;-39
2024/04/20 07:25:00;;;;;;;3.20;2.00;;;;;;;10.29;50.34;99340.27;106747;1264;70247;-39
2024/04/20 07:27:28;;;;;;;3.20;1.80;;;;;;;10.38;48.47;99345.32;106738;1264;73087;-39
2024/04/20 07:29:55;;;;;;;3.60;1.90;;;;;;;10.44;48.53;99343.96;106768;1269;60501;-37
2024/04/20 07:32:22;;;;;;;4.30;2.00;;;;;;;10.53;48.66;99345.30;106691;1269;59655;-39
2024/04/20 07:34:50;;;;;;;2.60;2.10;;;;;;;10.64;49.41;99343.27;106658;1264;76117;-39
2024/04/20 07:37:18;;;;;;;2.70;1.90;;;;;;;10.80;49.51;99336.52;106615;1269;67806;-39
2024/04/20 07:39:46;;;;;;;2.10;1.90;;;;;;;10.98;48.63;99338.18;107235;1262;71123;-38
2024/04/20 07:42:13;;;;;;;2.50;1.90;;;;;;;11.09;48.85;99337.29;107104;1259;60292;-39
2024/04/20 07:44:42;;;;;;;2.80;1.70;;;;;;;11.21;47.67;99340.13;107172;1258;60399;-38
2024/04/20 07:47:10;;;;;;;2.10;1.60;;;;;;;11.33;47.04;99337.97;107203;1257;76054;-38
2024/04/20 07:49:41;;;;;;;3.00;1.60;;;;;;;11.46;46.00;99335.70;107329;1260;68092;-38
2024/04/20 07:52:09;;;;;;;2.80;1.60;;;;;;;11.59;46.03;99332.08;107182;1262;71560;-38
2024/04/20 07:54:36;;;;;;;2.10;1.60;;;;;;;11.74;45.53;99324.86;107176;1258;60424;-38
2024/04/20 07:57:04;;;;;;;2.60;1.70;;;;;;;11.88;45.16;99330.41;107130;1257;60941;-38
2024/04/20 07:59:35;;;;;;;2.00;1.70;;;;;;;12.02;44.38;99330.21;107184;1257;74231;-38
2024/04/20 08:02:03;;;;;;;4.50;1.80;;;;;;;12.10;44.14;99330.23;107243;1257;67702;-38
2024/04/20 08:04:30;;;;;;;3.80;2.20;;;;;;;12.16;44.02;99327.11;107069;1261;74912;-39
2024/04/20 08:06:58;;;;;;;6.30;2.70;;;;;;;12.22;42.99;99324.77;107211;1258;60437;-39
2024/04/20 08:09:25;;;;;;;3.10;1.50;;;;;;;12.30;44.32;99328.67;107234;1257;60296;-39
2024/04/20 08:11:53;;;;;;;2.30;1.60;;;;;;;12.47;44.75;99331.57;107214;1260;72705;-39
2024/04/20 08:14:20;;;;;;;4.60;1.70;;;;;;;12.65;43.65;99330.22;107271;1257;66035;-37
2024/04/20 08:16:48;;;;;;;2.00;1.60;;;;;;;12.80;42.91;99325.79;107241;1258;73025;-38
2024/04/20 08:19:15;;;;;;;4.40;1.80;;;;;;;12.86;41.99;99329.95;107213;1257;61031;-37
2024/04/20 08:21:43;;;;;;;6.70;1.90;;;;;;;12.84;41.68;99331.48;107263;1257;60960;-38
2024/04/20 08:24:10;;;;;;;3.60;2.00;;;;;;;12.76;42.72;99335.45;107233;1255;74014;-38
2024/04/20 08:26:38;;;;;;;4.10;1.70;;;;;;;12.75;42.54;99330.23;107245;1257;68382;-38
2024/04/20 08:29:05;;;;;;;3.00;1.60;;;;;;;12.83;43.10;99334.96;107262;1257;71826;-38
2024/04/20 08:31:32;;;;;;;3.20;2.10;;;;;;;12.99;42.69;99330.92;107272;1257;60424;-38
2024/04/20 08:34:00;;;;;;;4.70;2.00;;;;;;;13.15;42.92;99329.67;107294;1257;61867;-38
2024/04/20 08:36:27;;;;;;;7.70;2.30;;;;;;;13.20;41.06;99324.91;107252;1256;73979;-38
2024/04/20 08:38:55;;;;;;;4.20;1.70;;;;;;;13.21;42.28;99320.39;107200;1257;66961;-38
2024/04/20 08:41:24;;;;;;;2.20;1.60;;;;;;;13.32;42.25;99322.73;107188;1256;71533;-38
2024/04/20 08:43:52;;;;;;;5.70;2.10;;;;;;;13.45;41.45;99327.34;107107;1257;62209;-38
2024/04/20 08:46:19;;;;;;;2.30;1.60;;;;;;;13.50;41.27;99321.14;107347;1257;61116;-38
2024/04/20 08:48:47;;;;;;;3.90;1.70;;;;;;;13.56;40.68;99322.41;107223;1257;73957;-38
2024/04/20 08:51:20;;;;;;;3.00;1.80;;;;;;;13.62;40.71;99325.18;107268;1256;67858;-38
2024/04/20 08:53:48;;;;;;;2.70;1.80;;;;;;;13.69;40.35;99324.45;107320;1256;72834;-38
2024/04/20 08:56:16;;;;;;;2.70;1.80;;;;;;;13.75;40.38;99315.06;107283;1256;60393;-38
2024/04/20 08:58:43;;;;;;;2.80;1.60;;;;;;;13.83;40.04;99308.72;107080;1257;60524;-38
2024/04/20 09:01:17;;;;;;;3.90;1.90;;;;;;;13.94;40.43;99294.67;107239;1258;72478;-38
2024/04/20 09:03:44;;;;;;;2.50;1.50;;;;;;;14.06;40.61;99281.64;107288;1257;68520;-38
2024/04/20 09:06:12;;;;;;;1.90;1.50;;;;;;;14.18;40.85;99279.27;107216;1258;72901;-38
2024/04/20 09:08:39;;;;;;;4.00;1.90;;;;;;;14.28;39.91;99287.33;107168;1258;60494;-38
2024/04/20 09:11:07;;;;;;;2.60;1.70;;;;;;;14.35;38.41;99292.03;107058;1257;60527;-38
2024/04/20 09:13:34;;;;;;;2.40;1.60;;;;;;;14.30;40.59;99286.15;107112;1258;74001;-38
2024/04/20 09:16:02;;;;;;;2.70;1.70;;;;;;;14.37;40.26;99289.92;107096;1256;67085;-38
2024/04/20 09:18:30;;;;;;;2.40;1.40;;;;;;;14.51;39.91;99287.71;107131;1257;70935;-38
2024/04/20 09:20:58;;;;;;;3.20;1.80;;;;;;;14.67;40.36;99296.48;107201;1257;60442;-39
2024/04/20 09:23:25;;;;;;;2.00;1.50;;;;;;;14.83;39.37;99298.66;107189;1257;62147;-39
2024/04/20 09:25:53;;;;;;;2.10;1.30;;;;;;;14.91;38.51;99297.41;107235;1257;73982;-39
2024/04/20 09:28:30;;;;;;;2.50;1.60;;;;;;;14.91;38.71;99297.34;107235;1260;70009;-39
2024/04/20 09:30:57;;;;;;;2.80;1.50;;;;;;;14.90;39.58;99298.36;107201;1263;73056;-39
2024/04/20 09:33:25;;;;;;;3.00;1.20;;;;;;;14.86;39.86;99303.49;107210;1257;60429;-39
2024/04/20 09:35:53;;;;;;;1.90;1.50;;;;;;;14.80;38.94;99305.52;107301;1256;60546;-39
2024/04/20 09:38:21;;;;;;;2.30;1.60;;;;;;;14.66;39.53;99298.73;107180;1257;74228;-39
2024/04/20 09:40:51;;;;;;;2.70;1.60;;;;;;;14.52;38.96;99286.08;107282;1256;67978;-38
2024/04/20 09:43:21;;;;;;;2.40;1.50;;;;;;;14.32;38.10;99291.94;107201;1257;72825;-39
2024/04/20 09:45:51;;;;;;;1.50;1.20;;;;;;;14.06;38.41;99297.13;107268;1259;60452;-39
2024/04/20 09:48:26;;;;;;;1.90;1.40;;;;;;;13.82;39.50;99295.64;107225;1262;60165;-39
2024/04/20 09:51:29;;;;;;;2.30;1.60;;;;;;;13.72;40.68;99294.88;107246;1257;75231;-39
2024/04/20 09:53:57;;;;;;;3.30;1.40;;;;;;;13.71;40.15;99293.63;107179;1263;66282;-39
2024/04/20 09:56:25;;;;;;;2.50;1.70;;;;;;;13.69;40.41;99292.85;107057;1257;73073;-39
2024/04/20 09:58:52;;;;;;;2.60;1.60;;;;;;;13.69;40.43;99294.09;107063;1257;62314;-39
2024/04/20 10:01:20;;;;;;;3.50;1.90;;;;;;;13.72;40.99;99299.55;107025;1258;62326;-38
2024/04/20 10:03:48;;;;;;;1.40;1.20;;;;;;;13.75;42.09;99304.39;107253;1260;72648;-39
2024/04/20 10:06:15;;;;;;;2.00;1.40;;;;;;;13.77;41.14;99309.16;107192;1256;68507;-38
2024/04/20 10:08:43;;;;;;;4.10;1.60;;;;;;;13.71;41.22;99309.13;107155;1257;74007;-38
2024/04/20 10:11:10;;;;;;;3.00;1.70;;;;;;;13.64;41.68;99313.05;107187;1262;60259;-39
2024/04/20 10:13:38;;;;;;;2.50;1.60;;;;;;;13.58;41.40;99311.14;107209;1258;60363;-38
2024/04/20 10:16:06;;;;;;;2.30;1.70;;;;;;;13.55;42.01;99306.16;107288;1257;73959;-38
2024/04/20 10:18:33;;;;;;;2.50;2.10;;;;;;;13.57;42.19;99305.77;107220;1262;68010;-38
2024/04/20 10:21:01;;;;;;;2.20;1.60;;;;;;;13.63;42.20;99301.45;107216;1262;72768;-38
2024/04/20 10:23:29;;;;;;;2.90;1.70;;;;;;;13.69;42.26;99303.20;107168;1257;60398;-38
2024/04/20 10:25:57;;;;;;;2.00;1.80;;;;;;;13.76;42.13;99295.61;107244;1257;60425;-39
2024/04/20 10:28:25;;;;;;;3.70;1.70;;;;;;;13.95;42.52;99287.75;107247;1257;75252;-39
2024/04/20 10:30:56;;;;;;;2.00;1.80;;;;;;;14.34;42.41;99287.80;107251;1257;68321;-39
2024/04/20 10:33:30;;;;;;;2.20;1.80;;;;;;;14.81;40.88;99283.85;107261;1258;71559;-38
2024/04/20 10:35:59;;;;;;;1.80;1.60;;;;;;;15.25;40.73;99278.83;107248;1257;60444;-38
2024/04/20 10:38:32;;;;;;;2.30;1.70;;;;;;;15.65;40.51;99278.23;107166;1257;62264;-38
2024/04/20 10:41:20;;;;;;;2.30;1.50;;;;;;;15.89;38.58;99280.58;107264;1257;74239;-40
2024/04/20 10:43:47;;;;;;;5.20;1.80;;;;;;;15.81;38.15;99281.79;107220;1258;68596;-38
2024/04/20 10:46:18;;;;;;;4.50;2.00;;;;;;;15.68;37.88;99284.79;107134;1264;75197;-38
2024/04/20 10:48:53;;;;;;;2.40;1.70;;;;;;;15.66;37.34;99280.34;107260;1263;60319;-38
2024/04/20 10:51:21;;;;;;;2.70;1.90;;;;;;;15.79;38.15;99283.42;107242;1257;60548;-38
2024/04/20 10:54:02;;;;;;;3.10;1.60;;;;;;;15.96;37.59;99285.32;107264;1260;76008;-38
2024/04/20 10:56:35;;;;;;;2.00;1.60;;;;;;;15.97;37.91;99284.77;107182;1256;66818;-38
2024/04/20 10:59:04;;;;;;;2.90;2.00;;;;;;;15.95;37.68;99289.14;107080;1257;72857;-38
2024/04/20 11:01:32;;;;;;;2.40;1.60;;;;;;;15.90;37.49;99283.63;107193;1257;61400;-38
2024/04/20 11:04:01;;;;;;;2.10;1.60;;;;;;;15.87;37.87;99272.53;107188;1256;61160;-38
2024/04/20 11:06:31;;;;;;;1.90;1.70;;;;;;;15.94;38.37;99269.38;107116;1257;73503;-38
2024/04/20 11:09:01;;;;;;;2.80;1.50;;;;;;;16.29;37.92;99271.15;107198;1257;66899;-38
2024/04/20 11:11:28;;;;;;;2.30;1.50;;;;;;;16.81;37.71;99264.98;107260;1258;71814;-40
2024/04/20 11:14:00;;;;;;;4.00;1.70;;;;;;;17.35;36.04;99269.11;107246;1257;61240;-39
2024/04/20 11:16:28;;;;;;;2.20;1.60;;;;;;;17.76;34.63;99268.77;107226;1263;62223;-38
2024/04/20 11:18:55;;;;;;;1.90;1.40;;;;;;;18.09;33.99;99270.18;107276;1260;77332;-38
2024/04/20 11:21:23;;;;;;;11.40;2.30;;;;;;;18.41;33.22;99263.94;107225;1256;69853;-39
2024/04/20 11:23:51;;;;;;;2.60;1.40;;;;;;;18.66;32.84;99267.14;107223;1257;71480;-39
2024/04/20 11:26:18;;;;;;;2.30;1.30;;;;;;;18.93;33.27;99256.34;107205;1258;61179;-39
2024/04/20 11:28:46;;;;;;;2.20;1.40;;;;;;;19.29;33.28;99252.33;107119;1257;62261;-39
2024/04/20 11:31:14;;;;;;;1.60;1.40;;;;;;;19.41;32.14;99261.01;107025;1257;74803;-39
2024/04/20 11:33:48;;;;;;;2.90;1.70;;;;;;;19.18;32.45;99262.35;107246;1257;67319;-40